Racecast

Makenna Meeks

Bella Vista (CA) · 12 · CVCCA D2SJS D2 · Compare head to head

what a rating means
100 is the average runner in the athlete's pool; a rating of 133 means 33% faster than that average runner. Ratings are distance-normalised and course-adjusted, so a hard course and a fast track land on one number. Each pool (high school boys, college women, middle school…) has its own average, and the HS-equivalent view puts every pool on the high-school scale.
Athlete rating 124.9 2014 TF season
Best race 125.2 TF
Races 48
Seasons 3 2011 — 2014

RankedNation #8600·CA #1292·CA D2 #545·SJS #123·SJS D2 #33·CVC #21·Team #13 ?

Speed rating — all races

Cross Country

XC speed rating

2013 XC 115.4

Bella Vista (CA) · Grade 12

Date Meet Event Result Place Rating Difficulty PR/SR Flags
2013-11-01 Willow Hills Reservoir Course 5000m 22:04.2 12th · 8th on team 117.0 +2.5% CSR RSR
2013-10-09 Maidu Park 5000m 21:15.3 12th · 7th on team 115.4 -2.5% SR CSR RSR
2013-08-23 Bella Vista High School 3200m 13:40 9th · 9th on team 113.9 +0.3% ★PR ★CR SR CSR RSR

2011 XC 120.8

Bella Vista (CA) · Grade 10

Date Meet Event Result Place Rating Difficulty PR/SR Flags
2011-11-26 Woodward Park 5000m 20:59 154th · 5th on team 119.5 -0.8% ★CR CSR
2011-11-11 Willow Hills Reservoir Course 5000m 20:51 2nd · 1st on team 124.4 +2.5% ★CR R CSR RSR
2011-11-05 Calaveras County Fairgrounds 4828m 20:36 2nd · 1st on team 122.6 +4.5% ★PR ★CR SR CSR
2011-10-28 Willow Hills Reservoir Course 5000m 21:58.7 14th · 8th on team 118.2 +2.5% CR CSR
2011-10-15 Willow Hills Reservoir Course 3400m 13:58 6th · 1st on team 123.4 +2.7% ★PR ★CR SR CSR
2011-10-12 Maidu Park 5000m 20:11 8th · 5th on team 122.9 -2.5% ★CR CSR
2011-10-08 Granite Park 5000m 20:09 16th · 1st on team 123.8 -1.7% ★PR ★CR R SR CSR RSR
2011-09-24 Stanford University Golf Course 5000m 21:11 119th · 7th on team 117.4 -1.9% ★CR CSR
2011-09-10 Granite Park 5000m 20:25 19th · 4th on team 123.4 -1.7% PR CR R SR CSR RSR
2011-09-03 Lagoon Valley Park 4828m 21:36 31st · 5th on team 116.9 +3.6% PR ★CR SR CSR RSR
2011-08-26 Woodland High School 3218m 13:23 4th · 4th on team 116.4 +0.6% ★PR ★CR SR CSR RSR

Track & Field

TF speed rating

2014 TF 122.1

Bella Vista (CA) · Grade 12

Date Meet Event Result Place Rating Difficulty PR/SR Flags
2014-05-16 Capital Valley Conference Finals 800m 2:28.02 6th · 5th on team 123.0 -0.5%
2014-05-02 Sheldon Distance Carnival 800m 2:26.5 3rd · 1st on team 123.9 -0.7% ★PR SR RSR
2014-04-30 CVC Center Meet 3 800m 2:27.21 4th · 3rd on team 123.4 -1.1% SR RSR
2014-04-26 Bella Vista Bronco Invitational 800m 2:27.46 10th · 4th on team 122.5 -1.1% SR RSR
2014-03-28 Bronco Roundup Distance Carnival 800m 2:30.21 13th · 5th on team 120.9 -1.1% SR
2014-03-19 CVC Center Meet 1 800m 2:34.54 2nd · 1st on team 118.8 +0.4%
2014-03-15 Folsom Depth Charge 800m 2:30.88 3rd · 1st on team 121.9 +0.6% SR RSR
2014-03-08 King/Gilbert Invitational 400m 1:05.87 16th · 1st on team -0.2% ★PR SR
2014-02-26 Bella Vista Intra-Squad 100m 14.65 4th · 4th on team -1.1% ★PR SR

2013 TF 119.4

Bella Vista (CA) · Grade 11

Date Meet Event Result Place Rating Difficulty PR/SR Flags
2013-05-10 CVC Finals 800m 2:27.52 6th · 5th on team 123.4 0.0%
2013-05-03 Nevada Union Invitational 800m 2:31.98 8th · 2nd on team 121.4 +1.1%
2013-04-26 Sheldon Distance Carnival 800m 2:28.6 6th · 1st on team 121.7 -0.7%
2013-04-17 CVC Center Meet 3 800m 2:26.86 3rd · 3rd on team 125.2 +0.4% PR ★R SR RSR
2013-03-20 CVC Center Meet 2 800m 2:31.3 6th · 5th on team 120.0 -0.5% PR SR
2013-03-16 Depth Charge 800m 2:31.85 4th · 1st on team 120.7 +0.6% PR SR RSR
2013-03-06 CVC Center Meet 1 800m 2:42.56 6th · 2nd on team 111.3 -1.1% RSR
2013-03-06 CVC Center Meet 1 400m 1:08.32 8th · 5th on team -1.1% PR SR
2013-02-27 Red and Black Intrasquad Pentathlon 800m 2:41.65 2nd · 2nd on team 111.2 -1.1% SR RSR
2013-02-27 Red and Black Intrasquad Pentathlon 100m 15.64 15th · 15th on team -1.1% PR SR

2011 TF 116.1

Bella Vista (CA) · Grade 9

Date Meet Event Result Place Rating Difficulty PR/SR Flags
2011-05-20 Sac Joaquin Section Division II Finals 1600m 5:44.42 17th · 1st on team 117.7 -1.1% ★PR SR
2011-05-12 Capital Valley Conference Finals 1600m 5:46.03 4th · 3rd on team 117.1 -1.1% PR SR
2011-05-12 Capital Valley Conference Finals 800m 2:35.38 7th · 3rd on team 115.7 -1.1%
2011-05-07 SacTown Races Frosh Soph Invitational 800m 2:37.36 17th · 3rd on team 115.9 +0.1%
2011-05-07 SacTown Races Frosh Soph Invitational 1500m 5:22.36 13th · 3rd on team 118.4 +0.1% ★PR R SR RSR
2011-04-28 CVC Center Meet 3 800m 2:40.08 6th · 2nd on team 114.1 +0.4%
2011-04-28 CVC Center Meet 3 1600m 5:58.19 6th · 3rd on team 114.8 +0.4%
2011-04-22 West Valley/Chico Invitational 1600m 5:47.63 31st · 3rd on team 116.6 -0.6%
2011-04-22 West Valley/Chico Invitational 800m 2:37.58 34th · 3rd on team 114.3 -0.6%
2011-04-08 Bronco Roundup Distance Carnival 1600m 5:48.68 25th · 3rd on team 115.9 -1.1%
2011-04-02 Bella Vista Bronco Invitational 1600m 5:51.1 23rd · 3rd on team 115.4 -1.1%
2011-04-02 Bella Vista Bronco Invitational 800m 2:34.5 13th · 1st on team 116.4 -1.1% PR SR
2011-03-16 CVC Center Meet 1 800m 2:36.22 5th · 2nd on team 115.5 -1.1% PR SR
2011-03-16 CVC Center Meet 1 1600m 5:47.18 6th · 3rd on team 116.9 -1.1% PR R SR RSR
2011-03-12 King Gilbert Invitational 1600m 5:51.67 30th · 2nd on team 116.0 -0.2% PR R SR RSR